YBRKYEML

Guest
Details From YBRK - Rockhampton
To YEML - Emerald
Flight Number -
Tags generated
Created
Modified
Stats Distance 137 nm / 253 km
Max Altitude 16,900 ft / 5,151 m
Waypoints 3
Social Downloads 0
Likes 0
Share VATSIM

Download

Looking for another format? Having issues loading an existing format? Contact us
Advertisement - Login to hide

Notes

Basic altitude profile: - Ascent Rate: 2500ft/min - Ascent Speed: 250kts - Cruise Altitude: 35000ft - Cruise Speed: 420kts - Descent Rate: 1500ft/min - Descent Speed: 250kts Options: - Use NATs: yes - Use PACOTS: yes - Use low airways: yes - Use high airways: no

Route

YBRK COCKA YEML

ID Type Via Altitude Latitude Longitude Leg Dist Tot Dist Heading (true) Name
O YBRK APT - 0 ft / 0 m -23.37879˚ 150.47329˚ - 0 nm - Rockhampton
COCKA FIX - 16,900 ft / 5,151 m -23.04194˚ 149.64139˚ 50 nm 50 nm 294° / 294° -
O YEML APT - 0 ft / 0 m -23.56835˚ 148.17810˚ 86 nm 136 nm 248° / 249° Emerald

Altitude Profile

Advertisement - Login to hide

YBRK

Details ICAO YBRK (ROK)
Name Rockhampton
Region Australia
Timezone Australia/Brisbane (UTC+10.0)
Stats Elevation 34 ft / 10 m (AMSL)
Location -23.378793° 150.473288°
Runways 2
Magnetic Variation 9.207° E

METAR

YBRK 121200Z AUTO 11007KT 9999 // NCD 24/19 Q1014

Decode

TAF

TAF YBRK 121127Z 1212/1312 13008KT 9999 FEW025 FM130300 07010KT 9999 FEW045 FM130900 11006KT 9999 FEW025

Decode

Departure Runways

ID Width Length Bearing (true) Bearing (mag) Surface Threshold Offset Overrun Length
04 102 ft / 31 m 5,395 ft / 1,644 m 52.34° 43.13° Asphalt 0 ft / 0 m 20 ft / 6 m
15 148 ft / 45 m 8,649 ft / 2,636 m 157.80° 148.59° Asphalt 0 ft / 0 m 0 ft / 0 m
22 102 ft / 31 m 5,395 ft / 1,644 m 232.34° 223.13° Asphalt 0 ft / 0 m 0 ft / 0 m
33 148 ft / 45 m 8,649 ft / 2,636 m 337.80° 328.59° Asphalt 0 ft / 0 m 0 ft / 0 m

YEML

Details ICAO YEML (EMD)
Name Emerald
Region Australia
Timezone Australia/Brisbane (UTC+10.0)
Stats Elevation 623 ft / 190 m (AMSL)
Location -23.568347° 148.178095°
Runways 2
Magnetic Variation 8.626° E

METAR

YEML 121200Z AUTO 08007KT 9999 // NCD 23/16 Q1013

Decode

TAF

Not found

Destination Runways

ID Width Length Bearing (true) Bearing (mag) Surface Threshold Offset Overrun Length
06 98 ft / 30 m 6,224 ft / 1,897 m 70.40° 61.77° Asphalt 0 ft / 0 m 98 ft / 30 m
15 62 ft / 19 m 2,312 ft / 705 m 151.69° 143.06° Asphalt 0 ft / 0 m 0 ft / 0 m
24 98 ft / 30 m 6,224 ft / 1,897 m 250.40° 241.77° Asphalt 0 ft / 0 m 102 ft / 31 m
33 62 ft / 19 m 2,312 ft / 705 m 331.69° 323.06° Asphalt 0 ft / 0 m 0 ft / 0 m